Terminal Aerodrome Forecast
Issued by NWS

Home | Current Version | Previous Version | Text Only | Print | Product List | Glossary On
Versions: 1 2 3 4 5 6 7 8 9 10 11 12 13 14 15 16 17
000
FTUS44 KLIX 210706 AAA
TAFGPT
TAF AMD
KGPT 210706Z 2107/2206 VRB03KT P6SM VCTS SCT025CB BKN200
      TEMPO 2110/2114 VRB20G35KT 2SM TSRA OVC015CB
     FM211500 12007KT P6SM BKN025 BKN090 PROB30 2117/2120 4SM TSRA
      OVC015CB
     FM212000 15007KT P6SM VCTS BKN035CB BKN110
     FM220300 VRB03KT P6SM BKN035 BKN250=

USA.gov is the U.S. government's official web portal to all federal, state and local government web resources and services.